createdAt,value
2022-11-17T00:00:18.768Z,96961.81
2022-11-17T00:02:45.893Z,96960.03
2022-11-17T00:05:13.046Z,96962.78
2022-11-17T00:07:40.112Z,96959.22
2022-11-17T00:10:07.189Z,96962.78
2022-11-17T00:12:53.223Z,96955.81
2022-11-17T00:15:20.302Z,96952.41
2022-11-17T00:17:48.346Z,96939.28
2022-11-17T00:20:34.245Z,96948.03
2022-11-17T00:23:01.293Z,96945.44
2022-11-17T00:25:28.342Z,96938.59
2022-11-17T00:27:55.467Z,96936.00
2022-11-17T00:30:43.801Z,96928.22
2022-11-17T00:33:30.057Z,96932.91
2022-11-17T00:35:57.114Z,96932.06
2022-11-17T00:38:24.194Z,96934.53
2022-11-17T00:40:51.299Z,96933.84
2022-11-17T00:43:18.382Z,96939.72
2022-11-17T00:45:45.449Z,96929.47
2022-11-17T00:48:12.583Z,96927.03
2022-11-17T00:50:39.650Z,96927.03
2022-11-17T00:53:06.720Z,96930.31
2022-11-17T00:55:33.837Z,96934.81
2022-11-17T00:58:01.013Z,96933.19
2022-11-17T01:00:28.079Z,96924.44
2022-11-17T01:02:55.166Z,96930.59
2022-11-17T01:05:22.234Z,96927.03
2022-11-17T01:07:49.319Z,96921.03
2022-11-17T01:10:16.446Z,96921.16
2022-11-17T01:12:43.502Z,96914.06
2022-11-17T01:15:10.604Z,96917.63
2022-11-17T01:17:37.703Z,96909.03
2022-11-17T01:20:04.802Z,96905.50
2022-11-17T01:22:31.873Z,96904.00
2022-11-17T01:24:58.943Z,96898.00
2022-11-17T01:27:26.022Z,96897.19
2022-11-17T01:29:53.115Z,96887.63
2022-11-17T01:32:20.424Z,96885.03
2022-11-17T01:34:47.491Z,96881.75
2022-11-17T01:37:20.867Z,96878.06
2022-11-17T01:39:47.969Z,96877.94
2022-11-17T01:42:15.118Z,96879.03
2022-11-17T01:44:44.459Z,96881.63
2022-11-17T01:47:11.519Z,96875.63
2022-11-17T01:49:38.600Z,96878.22
2022-11-17T01:52:05.678Z,96872.22
2022-11-17T01:54:32.749Z,96876.56
2022-11-17T01:56:59.801Z,96865.38
2022-11-17T01:59:26.879Z,96861.84
2022-11-17T02:01:57.070Z,96858.41
2022-11-17T02:04:24.202Z,96853.22
2022-11-17T02:06:51.381Z,96843.81
2022-11-17T02:09:18.458Z,96832.78
2022-11-17T02:11:45.522Z,96819.81
2022-11-17T02:14:12.645Z,96824.19
2022-11-17T02:16:39.712Z,96843.97
2022-11-17T02:19:06.817Z,96825.94
2022-11-17T02:21:34.076Z,96824.19
2022-11-17T02:24:01.188Z,96821.59
2022-11-17T02:26:28.251Z,96827.44
2022-11-17T02:28:55.334Z,96814.63
2022-11-17T02:31:22.411Z,96812.84
2022-11-17T02:33:49.460Z,96806.84
2022-11-17T02:36:16.539Z,96813.66
2022-11-17T02:38:43.618Z,96809.44
2022-11-17T02:41:10.721Z,96802.59
2022-11-17T02:43:56.684Z,96807.78
2022-11-17T02:46:23.833Z,96800.00
2022-11-17T02:48:50.893Z,96796.63
2022-11-17T02:51:17.966Z,96794.69
2022-11-17T02:53:45.090Z,96798.09
2022-11-17T02:56:12.169Z,96787.88
2022-11-17T02:58:39.228Z,96781.06
2022-11-17T03:01:06.298Z,96773.00
2022-11-17T03:03:33.785Z,96756.78
2022-11-17T03:06:01.073Z,96761.44
2022-11-17T03:08:32.736Z,96753.50
2022-11-17T03:11:00.285Z,96746.53
2022-11-17T03:13:27.418Z,96737.78
2022-11-17T03:15:55.119Z,96736.97
2022-11-17T03:18:22.215Z,96729.34
2022-11-17T03:20:49.339Z,96736.16
2022-11-17T03:23:16.417Z,96725.13
2022-11-17T03:25:43.521Z,96715.72
2022-11-17T03:28:10.594Z,96715.72
2022-11-17T03:30:37.822Z,96721.69
2022-11-17T03:33:05.348Z,96730.16
2022-11-17T03:35:32.456Z,96741.34
2022-11-17T03:37:59.547Z,96732.75
2022-11-17T03:40:26.686Z,96731.94
2022-11-17T03:42:54.045Z,96744.75
2022-11-17T03:45:21.125Z,96732.06
2022-11-17T03:47:48.281Z,96737.94
2022-11-17T03:50:15.388Z,96728.66
2022-11-17T03:52:42.443Z,96723.34
2022-11-17T03:55:09.554Z,96724.47
2022-11-17T03:57:36.636Z,96721.69
2022-11-17T04:00:03.997Z,96722.53
2022-11-17T04:02:31.082Z,96713.28
2022-11-17T04:05:07.535Z,96701.28
2022-11-17T04:07:34.763Z,96694.03
2022-11-17T04:10:01.862Z,96690.59
2022-11-17T04:12:47.997Z,96689.78
2022-11-17T04:15:33.490Z,96697.72
2022-11-17T04:18:00.592Z,96698.53
2022-11-17T04:20:35.836Z,96690.09
2022-11-17T04:23:09.188Z,96684.75
2022-11-17T04:25:54.954Z,96683.94
2022-11-17T04:28:37.352Z,96676.97
2022-11-17T04:31:04.469Z,96678.75
2022-11-17T04:33:31.516Z,96670.00
2022-11-17T04:35:58.590Z,96666.78
2022-11-17T04:38:25.654Z,96661.59
2022-11-17T04:41:11.613Z,96653.81
2022-11-17T04:43:41.477Z,96646.84
2022-11-17T04:46:08.586Z,96646.31
2022-11-17T04:48:35.654Z,96642.75
2022-11-17T04:51:02.737Z,96635.66
2022-11-17T04:53:29.802Z,96625.59
2022-11-17T04:55:56.892Z,96642.06
2022-11-17T04:58:23.957Z,96654.09
2022-11-17T05:00:51.037Z,96640.31
2022-11-17T05:03:18.155Z,96640.16
2022-11-17T05:05:45.375Z,96654.63
2022-11-17T05:08:12.521Z,96656.69
2022-11-17T05:10:58.384Z,96659.28
2022-11-17T05:13:26.168Z,96656.53
2022-11-17T05:16:11.899Z,96656.41
2022-11-17T05:18:38.968Z,96652.84
2022-11-17T05:21:06.118Z,96643.56
2022-11-17T05:23:52.043Z,96654.09
2022-11-17T05:26:19.104Z,96642.91
2022-11-17T05:28:46.190Z,96653.94
2022-11-17T05:31:13.286Z,96649.56
2022-11-17T05:33:40.746Z,96659.28
2022-11-17T05:36:07.993Z,96660.22
2022-11-17T05:38:35.049Z,96655.88
2022-11-17T05:41:02.116Z,96652.44
2022-11-17T05:43:29.216Z,96655.03
2022-11-17T05:45:56.287Z,96651.50
2022-11-17T05:48:23.384Z,96656.69
2022-11-17T05:50:51.286Z,96654.09
2022-11-17T05:53:18.355Z,96648.09
2022-11-17T05:55:45.426Z,96660.50
2022-11-17T05:58:12.531Z,96656.00
2022-11-17T06:00:39.603Z,96650.69
2022-11-17T06:03:06.708Z,96651.78
2022-11-17T06:05:33.792Z,96644.03
2022-11-17T06:08:00.863Z,96648.22
2022-11-17T06:10:27.932Z,96656.97
2022-11-17T06:12:54.998Z,96660.50
2022-11-17T06:15:22.053Z,96652.75
2022-11-17T06:17:49.121Z,96659.56
2022-11-17T06:20:16.180Z,96658.59
2022-11-17T06:22:48.171Z,96676.06
2022-11-17T06:25:15.710Z,96673.47
2022-11-17T06:27:42.785Z,96681.25
2022-11-17T06:30:10.132Z,96687.13
2022-11-17T06:32:37.202Z,96698.47
2022-11-17T06:35:04.291Z,96701.06
2022-11-17T06:37:31.368Z,96695.97
2022-11-17T06:39:58.469Z,96676.06
2022-11-17T06:42:44.118Z,96666.81
2022-11-17T06:45:11.189Z,96675.38
2022-11-17T06:47:38.249Z,96672.63
2022-11-17T06:50:05.298Z,96664.38
2022-11-17T06:52:32.922Z,96671.97
2022-11-17T06:55:00.033Z,96667.59
2022-11-17T06:57:27.171Z,96655.47
2022-11-17T06:59:54.383Z,96645.09
2022-11-17T07:02:21.523Z,96646.06
2022-11-17T07:04:48.679Z,96656.28
2022-11-17T07:07:15.856Z,96654.00
2022-11-17T07:09:43.134Z,96659.84
2022-11-17T07:12:10.236Z,96658.22
2022-11-17T07:14:37.393Z,96639.25
2022-11-17T07:17:04.500Z,96631.31
2022-11-17T07:19:31.632Z,96630.50
2022-11-17T07:21:58.755Z,96644.28
2022-11-17T07:24:25.911Z,96629.69
2022-11-17T07:26:53.067Z,96647.03
2022-11-17T07:29:20.316Z,96648.81
2022-11-17T07:31:47.420Z,96656.59
2022-11-17T07:34:14.521Z,96656.44
2022-11-17T07:36:41.666Z,96647.03
2022-11-17T07:39:08.899Z,96653.03
2022-11-17T07:41:36.054Z,96653.16
2022-11-17T07:44:03.223Z,96638.44
2022-11-17T07:46:30.319Z,96649.75
2022-11-17T07:48:57.417Z,96641.97
2022-11-17T07:51:24.751Z,96640.06
2022-11-17T07:53:51.912Z,96646.34
2022-11-17T07:56:19.064Z,96628.06
2022-11-17T07:58:46.247Z,96636.78
2022-11-17T08:01:15.542Z,96647.44
2022-11-17T08:03:42.881Z,96641.97
2022-11-17T08:06:10.239Z,96644.44
2022-11-17T08:08:38.320Z,96656.44
2022-11-17T08:11:06.117Z,96654.13
2022-11-17T08:13:33.280Z,96641.16
2022-11-17T08:16:00.400Z,96635.00
2022-11-17T08:18:27.539Z,96629.41
2022-11-17T08:20:54.644Z,96644.28
2022-11-17T08:23:21.863Z,96633.75
2022-11-17T08:25:49.152Z,96643.63
2022-11-17T08:28:16.315Z,96643.03
2022-11-17T08:30:44.442Z,96651.63
2022-11-17T08:33:11.593Z,96650.69
2022-11-17T08:35:38.935Z,96658.31
2022-11-17T08:38:06.097Z,96666.78
2022-11-17T08:40:33.196Z,96659.00
2022-11-17T08:43:01.540Z,96664.00
2022-11-17T08:45:28.955Z,96664.81
2022-11-17T08:47:56.118Z,96668.38
2022-11-17T08:50:23.263Z,96676.00
2022-11-17T08:52:50.425Z,96685.78
2022-11-17T08:55:17.640Z,96681.06
2022-11-17T08:57:44.930Z,96670.69
2022-11-17T09:00:12.111Z,96665.50
2022-11-17T09:02:39.352Z,96662.22
2022-11-17T09:05:06.521Z,96672.97
2022-11-17T09:07:35.056Z,96668.22
2022-11-17T09:10:02.260Z,96672.25
2022-11-17T09:12:29.401Z,96668.16
2022-11-17T09:14:56.474Z,96676.63
2022-11-17T09:17:23.587Z,96662.97
2022-11-17T09:19:50.677Z,96653.69
2022-11-17T09:22:17.752Z,96666.50
2022-11-17T09:24:44.877Z,96669.84
2022-11-17T09:27:12.115Z,96671.78
2022-11-17T09:29:39.253Z,96675.03
2022-11-17T09:32:06.423Z,96675.88
2022-11-17T09:34:33.600Z,96677.84
2022-11-17T09:37:00.733Z,96680.31
2022-11-17T09:39:27.887Z,96654.38
2022-11-17T09:41:55.035Z,96656.81
2022-11-17T09:44:22.191Z,96645.47
2022-11-17T09:46:49.273Z,96640.44
2022-11-17T09:49:16.431Z,96641.25
2022-11-17T09:51:43.556Z,96635.09
2022-11-17T09:54:10.688Z,96653.25
2022-11-17T09:56:37.807Z,96647.13
2022-11-17T09:59:05.246Z,96647.13
2022-11-17T10:01:32.375Z,96647.13
2022-11-17T10:04:01.359Z,96649.72
2022-11-17T10:06:28.880Z,96636.75
2022-11-17T10:08:58.316Z,96620.88
2022-11-17T10:11:35.318Z,96626.38
2022-11-17T10:14:03.120Z,96613.41
2022-11-17T10:16:30.227Z,96616.00
2022-11-17T10:18:57.407Z,96618.44
2022-11-17T10:21:25.371Z,96622.81
2022-11-17T10:23:52.505Z,96633.81
2022-11-17T10:26:19.600Z,96642.28
2022-11-17T10:28:48.487Z,96638.88
2022-11-17T10:31:15.619Z,96643.09
2022-11-17T10:33:43.594Z,96633.69
2022-11-17T10:36:10.673Z,96635.63
2022-11-17T10:38:37.749Z,96640.16
2022-11-17T10:41:04.989Z,96640.97
2022-11-17T10:43:32.737Z,96632.38
2022-11-17T10:45:59.947Z,96634.50
2022-11-17T10:48:27.136Z,96643.25
2022-11-17T10:50:54.347Z,96648.75
2022-11-17T10:53:21.469Z,96636.28
2022-11-17T10:55:48.547Z,96614.41
2022-11-17T10:58:15.664Z,96611.50
2022-11-17T11:00:42.826Z,96613.97
2022-11-17T11:03:09.923Z,96607.00
2022-11-17T11:05:37.042Z,96612.84
2022-11-17T11:08:04.133Z,96612.03
2022-11-17T11:10:31.343Z,96624.53
2022-11-17T11:12:59.294Z,96613.69
2022-11-17T11:15:26.381Z,96612.31
2022-11-17T11:17:53.463Z,96618.50
2022-11-17T11:20:20.571Z,96615.09
2022-11-17T11:22:47.653Z,96605.53
2022-11-17T11:25:14.766Z,96598.53
2022-11-17T11:27:41.846Z,96602.94
2022-11-17T11:30:08.952Z,96596.94
2022-11-17T11:32:37.025Z,96606.50
2022-11-17T11:35:04.138Z,96599.22
2022-11-17T11:37:31.301Z,96586.09
2022-11-17T11:39:58.955Z,96590.38
2022-11-17T11:42:26.087Z,96584.38
2022-11-17T11:44:53.278Z,96585.84
2022-11-17T11:47:20.409Z,96592.16
2022-11-17T11:49:47.520Z,96584.38
2022-11-17T11:52:14.645Z,96592.00
2022-11-17T11:54:44.990Z,96587.78
2022-11-17T11:57:16.473Z,96581.63
2022-11-17T11:59:48.198Z,96590.22
2022-11-17T12:02:15.397Z,96581.47
2022-11-17T12:04:42.539Z,96590.88
2022-11-17T12:07:11.267Z,96583.25
2022-11-17T12:09:38.472Z,96577.25
2022-11-17T12:12:05.595Z,96584.53
2022-11-17T12:14:32.733Z,96578.81
2022-11-17T12:16:59.870Z,96581.06
2022-11-17T12:19:26.990Z,96575.22
2022-11-17T12:21:54.115Z,96572.47
2022-11-17T12:24:21.216Z,96567.44
2022-11-17T12:26:48.327Z,96572.31
2022-11-17T12:29:15.396Z,96581.19
2022-11-17T12:31:42.467Z,96577.78
2022-11-17T12:34:09.956Z,96590.47
2022-11-17T12:36:37.545Z,96592.25
2022-11-17T12:39:04.655Z,96597.59
2022-11-17T12:41:31.774Z,96603.94
2022-11-17T12:43:58.864Z,96607.34
2022-11-17T12:46:26.659Z,96621.00
2022-11-17T12:48:53.838Z,96627.59
2022-11-17T12:51:21.002Z,96629.25
2022-11-17T12:53:48.240Z,96644.63
2022-11-17T12:56:15.345Z,96654.56
2022-11-17T12:58:42.458Z,96668.50
2022-11-17T13:01:09.752Z,96660.56
2022-11-17T13:03:36.997Z,96655.47
2022-11-17T13:06:28.297Z,96641.81
2022-11-17T13:08:51.212Z,96638.88
2022-11-17T13:11:18.303Z,96648.50
2022-11-17T13:13:47.326Z,96655.19
2022-11-17T13:16:14.621Z,96659.22
2022-11-17T13:18:41.781Z,96683.56
2022-11-17T13:21:08.860Z,96685.03
2022-11-17T13:23:35.971Z,96683.56
2022-11-17T13:26:03.098Z,96662.00
2022-11-17T13:28:30.268Z,96661.81
2022-11-17T13:30:57.443Z,96667.97
2022-11-17T13:33:24.599Z,96667.00
2022-11-17T13:35:51.770Z,96673.00
2022-11-17T13:38:18.848Z,96675.47
2022-11-17T13:40:46.146Z,96677.91
2022-11-17T13:43:13.266Z,96671.22
2022-11-17T13:45:40.692Z,96676.56
2022-11-17T13:48:07.775Z,96669.09
2022-11-17T13:50:34.915Z,96671.38
2022-11-17T13:53:02.050Z,96670.41
2022-11-17T13:55:29.215Z,96667.22
2022-11-17T13:57:56.413Z,96660.78
2022-11-17T14:00:23.554Z,96658.00
2022-11-17T14:02:50.655Z,96660.31
2022-11-17T14:05:18.507Z,96657.19
2022-11-17T14:07:46.001Z,96655.00
2022-11-17T14:10:13.378Z,96645.41
2022-11-17T14:12:40.560Z,96655.63
2022-11-17T14:15:07.655Z,96651.94
2022-11-17T14:17:34.734Z,96657.13
2022-11-17T14:20:01.813Z,96657.75
2022-11-17T14:22:31.754Z,96660.22
2022-11-17T14:24:59.095Z,96663.47
2022-11-17T14:27:26.167Z,96667.03
2022-11-17T14:29:53.267Z,96661.72
2022-11-17T14:32:20.347Z,96658.28
2022-11-17T14:34:47.487Z,96651.97
2022-11-17T14:37:14.579Z,96655.38
2022-11-17T14:39:41.659Z,96653.75
2022-11-17T14:42:08.799Z,96659.75
2022-11-17T14:44:35.939Z,96663.97
2022-11-17T14:47:03.368Z,96670.81
2022-11-17T14:49:30.495Z,96665.47
2022-11-17T14:51:59.262Z,96673.25
2022-11-17T14:54:26.436Z,96682.81
2022-11-17T14:56:53.606Z,96674.34
2022-11-17T14:59:20.776Z,96674.34
2022-11-17T15:01:47.882Z,96672.28
2022-11-17T15:04:43.369Z,96678.28
2022-11-17T15:07:03.423Z,96684.44
2022-11-17T15:09:30.880Z,96686.22
2022-11-17T15:11:58.017Z,96692.22
2022-11-17T15:14:25.144Z,96690.75
2022-11-17T15:16:52.270Z,96682.94
2022-11-17T15:19:19.410Z,96675.84
2022-11-17T15:21:46.584Z,96677.63
2022-11-17T15:24:14.191Z,96684.31
2022-11-17T15:26:41.459Z,96684.91
2022-11-17T15:29:09.486Z,96689.41
2022-11-17T15:31:36.785Z,96690.25
2022-11-17T15:34:03.986Z,96695.44
2022-11-17T15:36:31.945Z,96698.03
2022-11-17T15:38:59.101Z,96698.03
2022-11-17T15:41:31.336Z,96695.59
2022-11-17T15:43:59.789Z,96693.16
2022-11-17T15:46:26.977Z,96706.41
2022-11-17T15:48:54.157Z,96705.44
2022-11-17T15:51:21.323Z,96709.00
2022-11-17T15:53:48.415Z,96703.81
2022-11-17T15:56:15.550Z,96708.03
2022-11-17T15:58:42.750Z,96705.31
2022-11-17T16:01:10.077Z,96706.63
2022-11-17T16:03:37.314Z,96704.69
2022-11-17T16:06:04.502Z,96709.22
2022-11-17T16:08:31.662Z,96718.94
2022-11-17T16:10:58.918Z,96719.09
2022-11-17T16:13:26.205Z,96732.88
2022-11-17T16:15:53.327Z,96728.66
2022-11-17T16:18:20.597Z,96724.41
2022-11-17T16:20:48.189Z,96718.59
2022-11-17T16:23:15.735Z,96720.38
2022-11-17T16:25:42.849Z,96725.56
2022-11-17T16:28:10.015Z,96736.06
2022-11-17T16:30:37.344Z,96740.44
2022-11-17T16:33:04.447Z,96740.44
2022-11-17T16:35:31.590Z,96743.03
2022-11-17T16:37:58.680Z,96738.00
2022-11-17T16:40:25.836Z,96744.81
2022-11-17T16:42:52.975Z,96741.41
2022-11-17T16:45:20.146Z,96743.22
2022-11-17T16:47:47.281Z,96740.63
2022-11-17T16:50:14.414Z,96738.16
2022-11-17T16:52:41.534Z,96724.88
2022-11-17T16:55:08.653Z,96725.69
2022-11-17T16:57:35.848Z,96721.31
2022-11-17T17:00:03.008Z,96720.50
2022-11-17T17:02:30.274Z,96716.94
2022-11-17T17:04:57.706Z,96710.13
2022-11-17T17:07:24.909Z,96714.03
2022-11-17T17:09:52.570Z,96707.31
2022-11-17T17:12:19.671Z,96712.38
2022-11-17T17:14:46.740Z,96723.72
2022-11-17T17:17:13.820Z,96721.25
2022-11-17T17:19:40.972Z,96727.41
2022-11-17T17:22:08.166Z,96732.97
2022-11-17T17:24:35.314Z,96737.63
2022-11-17T17:27:02.395Z,96739.41
2022-11-17T17:29:29.555Z,96734.22
2022-11-17T17:31:56.664Z,96721.13
2022-11-17T17:34:24.056Z,96718.81
2022-11-17T17:36:51.160Z,96715.78
2022-11-17T17:39:18.479Z,96711.25
2022-11-17T17:41:46.065Z,96709.47
2022-11-17T17:44:13.313Z,96713.00
2022-11-17T17:46:40.404Z,96712.72
2022-11-17T17:49:07.627Z,96716.63
2022-11-17T17:51:34.784Z,96712.41
2022-11-17T17:54:02.118Z,96718.28
2022-11-17T17:56:30.712Z,96717.97
2022-11-17T17:58:57.916Z,96716.22
2022-11-17T18:01:25.053Z,96715.53
2022-11-17T18:03:53.782Z,96711.97
2022-11-17T18:06:21.205Z,96703.88
2022-11-17T18:08:48.276Z,96701.13
2022-11-17T18:11:16.932Z,96690.09
2022-11-17T18:13:44.054Z,96682.81
2022-11-17T18:16:11.131Z,96670.66
2022-11-17T18:18:38.299Z,96669.16
2022-11-17T18:21:05.448Z,96670.16
2022-11-17T18:23:34.340Z,96680.06
2022-11-17T18:26:01.448Z,96677.63
2022-11-17T18:28:28.588Z,96691.56
2022-11-17T18:30:55.716Z,96691.88
2022-11-17T18:33:22.869Z,96683.78
2022-11-17T18:35:50.045Z,96678.75
2022-11-17T18:38:17.182Z,96670.16
2022-11-17T18:40:44.293Z,96672.09
2022-11-17T18:43:11.381Z,96668.00
2022-11-17T18:45:38.579Z,96668.97
2022-11-17T18:48:05.711Z,96658.59
2022-11-17T18:50:32.809Z,96679.38
2022-11-17T18:52:59.926Z,96678.53
2022-11-17T18:55:27.214Z,96685.38
2022-11-17T18:57:54.326Z,96688.91
2022-11-17T19:00:21.484Z,96714.72
2022-11-17T19:02:48.674Z,96713.22
2022-11-17T19:05:15.844Z,96733.69
2022-11-17T19:07:43.035Z,96740.00
2022-11-17T19:10:10.265Z,96718.59
2022-11-17T19:12:37.497Z,96715.81
2022-11-17T19:15:04.587Z,96717.63
2022-11-17T19:17:31.699Z,96711.44
2022-11-17T19:19:59.600Z,96711.63
2022-11-17T19:22:26.731Z,96711.44
2022-11-17T19:24:53.871Z,96708.03
2022-11-17T19:27:21.031Z,96707.22
2022-11-17T19:29:48.183Z,96710.81
2022-11-17T19:32:15.289Z,96713.22
2022-11-17T19:34:42.674Z,96709.00
2022-11-17T19:37:09.964Z,96709.81
2022-11-17T19:39:37.238Z,96710.63
2022-11-17T19:42:04.651Z,96709.81
2022-11-17T19:44:31.983Z,96705.59
2022-11-17T19:46:59.320Z,96721.81
2022-11-17T19:49:26.612Z,96728.81
2022-11-17T19:51:53.904Z,96733.19
2022-11-17T19:54:21.364Z,96727.00
2022-11-17T19:56:48.628Z,96744.25
2022-11-17T19:59:16.791Z,96741.66
2022-11-17T20:01:44.811Z,96736.28
2022-11-17T20:04:12.370Z,96743.25
2022-11-17T20:06:39.663Z,96743.41
2022-11-17T20:09:07.663Z,96750.25
2022-11-17T20:11:35.481Z,96757.06
2022-11-17T20:14:03.043Z,96752.16
2022-11-17T20:16:33.472Z,96747.94
2022-11-17T20:19:00.880Z,96742.22
2022-11-17T20:21:28.018Z,96747.25
2022-11-17T20:23:55.183Z,96749.72
2022-11-17T20:26:22.554Z,96746.31
2022-11-17T20:28:49.980Z,96738.66
2022-11-17T20:31:17.206Z,96734.28
2022-11-17T20:33:44.510Z,96724.72
2022-11-17T20:36:11.835Z,96724.88
2022-11-17T20:38:39.131Z,96740.28
2022-11-17T20:41:06.435Z,96746.59
2022-11-17T20:43:33.742Z,96736.38
2022-11-17T20:46:00.909Z,96738.97
2022-11-17T20:48:29.200Z,96732.97
2022-11-17T20:50:56.567Z,96737.22
2022-11-17T20:53:23.690Z,96732.81
2022-11-17T20:55:50.840Z,96733.47
2022-11-17T20:58:18.031Z,96716.59
2022-11-17T21:00:45.270Z,96730.53
2022-11-17T21:03:12.524Z,96727.94
2022-11-17T21:05:40.051Z,96735.72
2022-11-17T21:08:07.395Z,96729.84
2022-11-17T21:10:34.810Z,96730.00
2022-11-17T21:13:01.997Z,96731.78
2022-11-17T21:15:29.125Z,96733.56
2022-11-17T21:18:15.153Z,96732.75
2022-11-17T21:20:44.970Z,96727.06
2022-11-17T21:23:12.121Z,96728.00
2022-11-17T21:25:39.255Z,96731.41
2022-11-17T21:28:06.375Z,96729.66
2022-11-17T21:30:33.966Z,96731.56
2022-11-17T21:33:06.333Z,96733.34
2022-11-17T21:35:33.404Z,96732.53
2022-11-17T21:38:00.681Z,96738.53
2022-11-17T21:40:27.842Z,96735.13
2022-11-17T21:42:54.971Z,96739.50
2022-11-17T21:45:22.095Z,96731.06
2022-11-17T21:47:49.247Z,96731.88
2022-11-17T21:50:16.372Z,96734.47
2022-11-17T21:52:43.446Z,96737.22
2022-11-17T21:55:10.747Z,96739.81
2022-11-17T21:57:37.852Z,96735.44
2022-11-17T22:00:05.922Z,96737.22
2022-11-17T22:02:33.079Z,96733.00
2022-11-17T22:05:00.217Z,96735.44
2022-11-17T22:07:27.426Z,96728.75
2022-11-17T22:09:55.047Z,96739.28
2022-11-17T22:12:22.160Z,96736.69
2022-11-17T22:14:49.235Z,96739.28
2022-11-17T22:17:16.360Z,96746.09
2022-11-17T22:19:43.460Z,96742.84
2022-11-17T22:22:10.547Z,96748.84
2022-11-17T22:24:39.634Z,96750.75
2022-11-17T22:27:07.129Z,96754.03
2022-11-17T22:29:34.246Z,96753.06
2022-11-17T22:32:01.352Z,96754.84
2022-11-17T22:34:29.228Z,96764.25
2022-11-17T22:36:56.392Z,96767.81
2022-11-17T22:39:23.511Z,96766.72
2022-11-17T22:41:50.644Z,96771.91
2022-11-17T22:44:17.856Z,96771.75
2022-11-17T22:46:45.784Z,96774.63
2022-11-17T22:49:12.968Z,96778.03
2022-11-17T22:51:59.115Z,96779.69
2022-11-17T22:54:26.138Z,96784.03
2022-11-17T22:56:53.217Z,96789.22
2022-11-17T22:59:21.122Z,96787.59
2022-11-17T23:01:48.221Z,96795.38
2022-11-17T23:04:16.475Z,96789.38
2022-11-17T23:06:43.608Z,96794.13
2022-11-17T23:09:10.719Z,96778.84
2022-11-17T23:11:38.462Z,96784.19
2022-11-17T23:14:05.730Z,96779.16
2022-11-17T23:16:33.275Z,96785.00
2022-11-17T23:19:00.432Z,96783.38
2022-11-17T23:21:27.587Z,96779.28
2022-11-17T23:23:54.843Z,96778.47
2022-11-17T23:26:22.493Z,96773.28
2022-11-17T23:28:49.574Z,96775.88
2022-11-17T23:31:16.736Z,96774.78
2022-11-17T23:33:45.461Z,96771.50
2022-11-17T23:36:12.937Z,96774.78
2022-11-17T23:38:40.042Z,96777.38
2022-11-17T23:41:07.167Z,96772.31
2022-11-17T23:43:34.280Z,96774.09
2022-11-17T23:46:01.358Z,96767.28
2022-11-17T23:48:28.450Z,96770.69
2022-11-17T23:50:55.532Z,96772.50
2022-11-17T23:53:22.607Z,96764.72
2022-11-17T23:55:49.747Z,96765.50
2022-11-17T23:58:16.929Z,96768.09
